X  Close Metar Aviation Weather Data        EGTE Exeter
Temperature
59°F Temperature
41°F Dewpoint
51% Humidity



Wind
7 MPH
11 KM/H
3 M/S
6 KTS



-1°
VRB
Current Conditions

Mostly Sunny Mostly Sunny
Pressure 1024 (hPa) - 30.24 (inHg)
Visibility 6 (mile) - 10 (km)
Airport
Airport-code EGTE

Location: Exeter
Distance: 32 (mi)

Metar:
METAR EGTE 181250Z VRB06KT 9999 FEW040 15/05 Q1024

Time: 18-04-2024 13:50 BST